Montezuma, NM (87731)

3:44 PM MDT on August 27, 2014 (GMT -0600)
Las Vegas Municipal | Change Station
CLOSE
Current Station
Airport
Location: Las Vegas,
Elevation: 6877 ft
Nearby Weather Stations

Elev 6877 ft 35.65 °N, 105.14 °W | Updated 51 minutes ago

Clear
Clear
77 °F
Feels Like 77 °F
N
12
Wind Variable Wind from SSW

Today
High -- | Low -- °F
--% Chance of Precip.
Yesterday
High -- | Low -- °F
Precip. -- in
6:29 AM 7:35 PM
Waxing Crescent, 5% visible
Pressure 29.94 in
Visibility 10.0 miles
Clouds Clear
Dew Point 44 °F
Humidity 31%
Rainfall 0.12 in
Snow Depth 0 in
UV 9 out of 12
Pollen 4.40 out of 12
Air Quality Not available.
Flu Activity Not available.
METAR KLVS 272053Z AUTO 21010KT 10SM CLR 25/07 A3025 RMK AO2 SLP137 T02500067 58018

More Conditions Fewer Conditions

Pressure 29.94 in
Visibility 10.0 miles
Clouds Clear
Dew Point 44 °F
Humidity 31%
Rainfall 0.12 in
Snow Depth 0 in
UV 9 out of 12
Pollen 4.40 out of 12
Air Quality Not available.
Flu Activity Not available.
METAR KLVS 272053Z AUTO 21010KT 10SM CLR 25/07 A3025 RMK AO2 SLP137 T02500067 58018

More Conditions Fewer Conditions

10-Day Weather Forecast

Almanac

Astronomy

Aug. 27, 2014 Rise Set
Actual Time 6:29 AM MDT 7:35 PM MDT
Civil Twilight 6:03 AM MDT 8:01 PM MDT
Nautical Twilight 5:31 AM MDT 8:32 PM MDT
Astronomical Twilight 4:59 AM MDT 9:04 PM MDT
Moon 8:22 AM MDT 8:35 PM MDT
Length of Visible Light 13h 58m
Length of Day
13h 05m
Tomorrow will be 2m 8s shorter.
Waxing Crescent, 5% of the Moon is Illuminated
Today
Waxing Crescent
Sep 2
First Quarter
Sep 8
Full
Sep 15
Last Quarter
Sep 24
New

Today's Extremes

State Highs State Lows

Community

WunderPhotos

Upload Photos

1,747,791 photos uploaded!

Nearby

Snow Depth

Station Depth Elevation
Wesner Springs 0 in 11120 ft
Elk Cabin 143 in 8210 ft
Santa Fe 1 in 11445 ft
Quemazon 1 in 9500 ft
Hopewell 0 in 10000 ft

Earthquake Activity

City Distance Mag. Time & Date
No recent earthquake activity has been reported nearby.
Minimum magnitude displayed is 2.5.

Coastal Water Temperatures

Place Temperature
No Stations Reporting

Nearby Weather Stations